sensor_id;sensor_type;location;lat;lon;timestamp;P1;durP1;ratioP1;P2;durP2;ratioP2
43152;SDS011;28756;49.064;9.290;2022-07-10T00:00:43;1.92;;;1.80;;
43152;SDS011;28756;49.064;9.290;2022-07-10T00:03:09;2.10;;;1.90;;
43152;SDS011;28756;49.064;9.290;2022-07-10T00:05:35;2.20;;;2.00;;
43152;SDS011;28756;49.064;9.290;2022-07-10T00:08:01;1.75;;;1.63;;
43152;SDS011;28756;49.064;9.290;2022-07-10T00:10:27;2.33;;;2.13;;
43152;SDS011;28756;49.064;9.290;2022-07-10T00:12:54;3.00;;;2.70;;
43152;SDS011;28756;49.064;9.290;2022-07-10T00:15:21;2.50;;;2.30;;
43152;SDS011;28756;49.064;9.290;2022-07-10T00:17:46;2.67;;;2.20;;
43152;SDS011;28756;49.064;9.290;2022-07-10T00:20:13;2.85;;;2.42;;
43152;SDS011;28756;49.064;9.290;2022-07-10T00:22:40;2.90;;;2.70;;
43152;SDS011;28756;49.064;9.290;2022-07-10T00:25:07;2.65;;;2.33;;
43152;SDS011;28756;49.064;9.290;2022-07-10T00:27:36;4.40;;;2.80;;
43152;SDS011;28756;49.064;9.290;2022-07-10T00:30:01;2.70;;;2.40;;
43152;SDS011;28756;49.064;9.290;2022-07-10T00:32:28;2.90;;;2.60;;
43152;SDS011;28756;49.064;9.290;2022-07-10T00:34:54;2.80;;;2.47;;
43152;SDS011;28756;49.064;9.290;2022-07-10T00:37:19;2.65;;;2.45;;
43152;SDS011;28756;49.064;9.290;2022-07-10T00:39:48;3.15;;;2.50;;
43152;SDS011;28756;49.064;9.290;2022-07-10T00:42:14;2.97;;;2.78;;
43152;SDS011;28756;49.064;9.290;2022-07-10T00:44:41;2.70;;;2.35;;
43152;SDS011;28756;49.064;9.290;2022-07-10T00:47:08;2.50;;;2.30;;
43152;SDS011;28756;49.064;9.290;2022-07-10T00:49:35;3.00;;;2.40;;
43152;SDS011;28756;49.064;9.290;2022-07-10T00:52:03;3.08;;;2.72;;
43152;SDS011;28756;49.064;9.290;2022-07-10T00:54:37;3.53;;;2.63;;
43152;SDS011;28756;49.064;9.290;2022-07-10T00:57:06;4.53;;;2.97;;
43152;SDS011;28756;49.064;9.290;2022-07-10T00:59:33;3.53;;;2.30;;
43152;SDS011;28756;49.064;9.290;2022-07-10T01:02:00;3.88;;;2.83;;
43152;SDS011;28756;49.064;9.290;2022-07-10T01:04:29;2.83;;;2.50;;
43152;SDS011;28756;49.064;9.290;2022-07-10T01:06:55;3.47;;;3.17;;
43152;SDS011;28756;49.064;9.290;2022-07-10T01:09:20;4.13;;;2.72;;
43152;SDS011;28756;49.064;9.290;2022-07-10T01:11:46;2.30;;;2.10;;
43152;SDS011;28756;49.064;9.290;2022-07-10T01:14:12;2.75;;;2.55;;
43152;SDS011;28756;49.064;9.290;2022-07-10T01:16:39;3.15;;;2.85;;
43152;SDS011;28756;49.064;9.290;2022-07-10T01:19:06;3.30;;;3.00;;
43152;SDS011;28756;49.064;9.290;2022-07-10T01:21:32;2.42;;;2.22;;
43152;SDS011;28756;49.064;9.290;2022-07-10T01:24:03;4.38;;;2.55;;
43152;SDS011;28756;49.064;9.290;2022-07-10T01:26:32;3.25;;;2.70;;
43152;SDS011;28756;49.064;9.290;2022-07-10T01:28:58;3.63;;;2.97;;
43152;SDS011;28756;49.064;9.290;2022-07-10T01:31:30;2.70;;;2.45;;
43152;SDS011;28756;49.064;9.290;2022-07-10T01:33:58;2.45;;;2.25;;
43152;SDS011;28756;49.064;9.290;2022-07-10T01:36:25;2.83;;;2.55;;
43152;SDS011;28756;49.064;9.290;2022-07-10T01:38:57;2.60;;;2.40;;
43152;SDS011;28756;49.064;9.290;2022-07-10T01:41:24;2.92;;;2.63;;
43152;SDS011;28756;49.064;9.290;2022-07-10T01:43:50;3.10;;;2.80;;
43152;SDS011;28756;49.064;9.290;2022-07-10T01:46:17;5.28;;;3.08;;
43152;SDS011;28756;49.064;9.290;2022-07-10T01:48:43;3.65;;;2.90;;
43152;SDS011;28756;49.064;9.290;2022-07-10T01:51:10;3.90;;;2.97;;
43152;SDS011;28756;49.064;9.290;2022-07-10T01:53:37;2.67;;;2.45;;
43152;SDS011;28756;49.064;9.290;2022-07-10T01:56:04;2.97;;;2.67;;
43152;SDS011;28756;49.064;9.290;2022-07-10T01:58:33;2.63;;;2.42;;
43152;SDS011;28756;49.064;9.290;2022-07-10T02:00:59;2.85;;;2.60;;
43152;SDS011;28756;49.064;9.290;2022-07-10T02:03:26;2.85;;;2.60;;
43152;SDS011;28756;49.064;9.290;2022-07-10T02:06:11;2.70;;;2.25;;
43152;SDS011;28756;49.064;9.290;2022-07-10T02:08:38;7.20;;;2.92;;
43152;SDS011;28756;49.064;9.290;2022-07-10T02:11:03;2.75;;;2.47;;
43152;SDS011;28756;49.064;9.290;2022-07-10T02:13:29;2.42;;;2.20;;
43152;SDS011;28756;49.064;9.290;2022-07-10T02:15:56;2.38;;;2.17;;
43152;SDS011;28756;49.064;9.290;2022-07-10T02:18:23;2.10;;;1.88;;
43152;SDS011;28756;49.064;9.290;2022-07-10T02:20:50;2.63;;;2.40;;
43152;SDS011;28756;49.064;9.290;2022-07-10T02:23:17;2.95;;;2.30;;
43152;SDS011;28756;49.064;9.290;2022-07-10T02:25:42;2.50;;;2.30;;
43152;SDS011;28756;49.064;9.290;2022-07-10T02:28:08;2.70;;;2.50;;
43152;SDS011;28756;49.064;9.290;2022-07-10T02:30:34;2.80;;;2.60;;
43152;SDS011;28756;49.064;9.290;2022-07-10T02:33:01;2.47;;;2.28;;
43152;SDS011;28756;49.064;9.290;2022-07-10T02:35:27;3.08;;;2.80;;
43152;SDS011;28756;49.064;9.290;2022-07-10T02:37:52;3.83;;;2.40;;
43152;SDS011;28756;49.064;9.290;2022-07-10T02:40:18;2.63;;;2.42;;
43152;SDS011;28756;49.064;9.290;2022-07-10T02:42:44;2.42;;;2.20;;
43152;SDS011;28756;49.064;9.290;2022-07-10T02:45:10;5.68;;;2.40;;
43152;SDS011;28756;49.064;9.290;2022-07-10T02:47:36;2.53;;;2.10;;
43152;SDS011;28756;49.064;9.290;2022-07-10T02:50:02;2.50;;;2.22;;
43152;SDS011;28756;49.064;9.290;2022-07-10T02:52:28;3.22;;;2.72;;
43152;SDS011;28756;49.064;9.290;2022-07-10T02:54:55;2.53;;;2.33;;
43152;SDS011;28756;49.064;9.290;2022-07-10T02:57:22;2.92;;;2.55;;
43152;SDS011;28756;49.064;9.290;2022-07-10T02:59:48;3.03;;;2.72;;
43152;SDS011;28756;49.064;9.290;2022-07-10T03:02:14;2.97;;;2.55;;
43152;SDS011;28756;49.064;9.290;2022-07-10T03:04:40;2.72;;;2.53;;
43152;SDS011;28756;49.064;9.290;2022-07-10T03:07:05;3.50;;;3.20;;
43152;SDS011;28756;49.064;9.290;2022-07-10T03:09:32;3.30;;;3.00;;
43152;SDS011;28756;49.064;9.290;2022-07-10T03:11:57;3.15;;;2.90;;
43152;SDS011;28756;49.064;9.290;2022-07-10T03:14:23;2.55;;;2.35;;
43152;SDS011;28756;49.064;9.290;2022-07-10T03:16:49;2.63;;;2.42;;
43152;SDS011;28756;49.064;9.290;2022-07-10T03:19:14;2.40;;;2.20;;
43152;SDS011;28756;49.064;9.290;2022-07-10T03:21:40;2.90;;;2.60;;
43152;SDS011;28756;49.064;9.290;2022-07-10T03:24:06;2.50;;;2.30;;
43152;SDS011;28756;49.064;9.290;2022-07-10T03:26:32;3.05;;;2.65;;
43152;SDS011;28756;49.064;9.290;2022-07-10T03:28:57;3.08;;;2.67;;
43152;SDS011;28756;49.064;9.290;2022-07-10T03:31:23;2.58;;;2.38;;
43152;SDS011;28756;49.064;9.290;2022-07-10T03:33:49;5.13;;;3.63;;
43152;SDS011;28756;49.064;9.290;2022-07-10T03:36:17;3.60;;;2.72;;
43152;SDS011;28756;49.064;9.290;2022-07-10T03:38:43;2.63;;;2.40;;
43152;SDS011;28756;49.064;9.290;2022-07-10T03:41:11;4.20;;;2.97;;
43152;SDS011;28756;49.064;9.290;2022-07-10T03:43:38;3.40;;;3.10;;
43152;SDS011;28756;49.064;9.290;2022-07-10T03:46:03;5.82;;;2.75;;
43152;SDS011;28756;49.064;9.290;2022-07-10T03:48:29;5.10;;;3.10;;
43152;SDS011;28756;49.064;9.290;2022-07-10T03:50:55;7.80;;;2.92;;
43152;SDS011;28756;49.064;9.290;2022-07-10T03:53:21;4.05;;;3.00;;
43152;SDS011;28756;49.064;9.290;2022-07-10T03:55:47;2.95;;;2.58;;
43152;SDS011;28756;49.064;9.290;2022-07-10T03:58:13;3.47;;;2.88;;
43152;SDS011;28756;49.064;9.290;2022-07-10T04:00:38;5.32;;;3.20;;
43152;SDS011;28756;49.064;9.290;2022-07-10T04:03:07;3.90;;;2.63;;
43152;SDS011;28756;49.064;9.290;2022-07-10T04:05:33;3.13;;;2.58;;
43152;SDS011;28756;49.064;9.290;2022-07-10T04:07:59;3.45;;;2.83;;
43152;SDS011;28756;49.064;9.290;2022-07-10T04:10:28;3.00;;;2.70;;
43152;SDS011;28756;49.064;9.290;2022-07-10T04:12:55;4.65;;;3.13;;
43152;SDS011;28756;49.064;9.290;2022-07-10T04:15:21;3.70;;;3.17;;
43152;SDS011;28756;49.064;9.290;2022-07-10T04:17:47;3.10;;;2.80;;
43152;SDS011;28756;49.064;9.290;2022-07-10T04:20:14;2.85;;;2.65;;
43152;SDS011;28756;49.064;9.290;2022-07-10T04:22:41;5.03;;;3.53;;
43152;SDS011;28756;49.064;9.290;2022-07-10T04:25:08;4.60;;;2.72;;
43152;SDS011;28756;49.064;9.290;2022-07-10T04:27:34;4.50;;;2.85;;
43152;SDS011;28756;49.064;9.290;2022-07-10T04:30:00;3.92;;;3.00;;
43152;SDS011;28756;49.064;9.290;2022-07-10T04:32:27;5.90;;;3.25;;
43152;SDS011;28756;49.064;9.290;2022-07-10T04:34:56;4.40;;;2.65;;
43152;SDS011;28756;49.064;9.290;2022-07-10T04:37:22;3.97;;;2.83;;
43152;SDS011;28756;49.064;9.290;2022-07-10T04:39:47;4.45;;;3.15;;
43152;SDS011;28756;49.064;9.290;2022-07-10T04:42:13;3.83;;;2.97;;
43152;SDS011;28756;49.064;9.290;2022-07-10T04:44:39;4.43;;;3.33;;
43152;SDS011;28756;49.064;9.290;2022-07-10T04:47:05;3.90;;;3.00;;
43152;SDS011;28756;49.064;9.290;2022-07-10T04:49:31;4.32;;;2.88;;
43152;SDS011;28756;49.064;9.290;2022-07-10T04:51:58;4.35;;;2.65;;
43152;SDS011;28756;49.064;9.290;2022-07-10T04:54:25;4.13;;;2.47;;
43152;SDS011;28756;49.064;9.290;2022-07-10T04:56:50;4.10;;;2.78;;
43152;SDS011;28756;49.064;9.290;2022-07-10T04:59:17;3.15;;;2.85;;
43152;SDS011;28756;49.064;9.290;2022-07-10T05:01:43;4.10;;;2.30;;
43152;SDS011;28756;49.064;9.290;2022-07-10T05:04:08;4.85;;;2.95;;
43152;SDS011;28756;49.064;9.290;2022-07-10T05:06:35;3.10;;;2.33;;
43152;SDS011;28756;49.064;9.290;2022-07-10T05:09:01;3.58;;;2.30;;
43152;SDS011;28756;49.064;9.290;2022-07-10T05:11:27;2.92;;;2.00;;
43152;SDS011;28756;49.064;9.290;2022-07-10T05:13:53;2.28;;;1.80;;
43152;SDS011;28756;49.064;9.290;2022-07-10T05:16:19;3.17;;;1.98;;
43152;SDS011;28756;49.064;9.290;2022-07-10T05:18:45;3.95;;;1.70;;
43152;SDS011;28756;49.064;9.290;2022-07-10T05:21:11;2.47;;;1.80;;
43152;SDS011;28756;49.064;9.290;2022-07-10T05:23:37;3.05;;;1.67;;
43152;SDS011;28756;49.064;9.290;2022-07-10T05:26:04;2.15;;;1.58;;
43152;SDS011;28756;49.064;9.290;2022-07-10T05:28:30;2.05;;;1.50;;
43152;SDS011;28756;49.064;9.290;2022-07-10T05:30:57;2.70;;;1.45;;
43152;SDS011;28756;49.064;9.290;2022-07-10T05:33:22;1.95;;;1.50;;
43152;SDS011;28756;49.064;9.290;2022-07-10T05:35:51;2.15;;;1.60;;
43152;SDS011;28756;49.064;9.290;2022-07-10T05:38:17;2.13;;;1.25;;
43152;SDS011;28756;49.064;9.290;2022-07-10T05:40:42;1.90;;;1.38;;
43152;SDS011;28756;49.064;9.290;2022-07-10T05:43:08;1.85;;;1.50;;
43152;SDS011;28756;49.064;9.290;2022-07-10T05:45:35;1.95;;;1.27;;
43152;SDS011;28756;49.064;9.290;2022-07-10T05:48:00;2.60;;;1.33;;
43152;SDS011;28756;49.064;9.290;2022-07-10T05:50:26;2.50;;;1.30;;
43152;SDS011;28756;49.064;9.290;2022-07-10T05:52:52;1.80;;;1.08;;
43152;SDS011;28756;49.064;9.290;2022-07-10T05:55:17;2.58;;;1.27;;
43152;SDS011;28756;49.064;9.290;2022-07-10T05:57:43;2.40;;;1.50;;
43152;SDS011;28756;49.064;9.290;2022-07-10T06:00:09;2.70;;;1.40;;
43152;SDS011;28756;49.064;9.290;2022-07-10T06:02:35;2.00;;;1.20;;
43152;SDS011;28756;49.064;9.290;2022-07-10T06:05:01;3.08;;;1.30;;
43152;SDS011;28756;49.064;9.290;2022-07-10T06:07:27;3.53;;;1.30;;
43152;SDS011;28756;49.064;9.290;2022-07-10T06:09:53;2.92;;;1.38;;
43152;SDS011;28756;49.064;9.290;2022-07-10T06:12:19;3.55;;;1.30;;
43152;SDS011;28756;49.064;9.290;2022-07-10T06:14:45;2.53;;;1.20;;
43152;SDS011;28756;49.064;9.290;2022-07-10T06:17:11;2.55;;;1.25;;
43152;SDS011;28756;49.064;9.290;2022-07-10T06:19:36;2.70;;;1.40;;
43152;SDS011;28756;49.064;9.290;2022-07-10T06:22:02;3.22;;;1.20;;
43152;SDS011;28756;49.064;9.290;2022-07-10T06:24:47;3.15;;;1.10;;
43152;SDS011;28756;49.064;9.290;2022-07-10T06:27:13;1.95;;;1.08;;
43152;SDS011;28756;49.064;9.290;2022-07-10T06:29:38;1.80;;;0.93;;
43152;SDS011;28756;49.064;9.290;2022-07-10T06:32:05;2.38;;;1.10;;
43152;SDS011;28756;49.064;9.290;2022-07-10T06:34:32;1.67;;;1.10;;
43152;SDS011;28756;49.064;9.290;2022-07-10T06:36:57;3.05;;;1.15;;
43152;SDS011;28756;49.064;9.290;2022-07-10T06:39:23;2.50;;;1.20;;
43152;SDS011;28756;49.064;9.290;2022-07-10T06:41:49;2.78;;;1.20;;
43152;SDS011;28756;49.064;9.290;2022-07-10T06:44:14;2.83;;;1.10;;
43152;SDS011;28756;49.064;9.290;2022-07-10T06:46:43;3.97;;;1.00;;
43152;SDS011;28756;49.064;9.290;2022-07-10T06:49:28;2.40;;;1.00;;
43152;SDS011;28756;49.064;9.290;2022-07-10T06:51:54;7.75;;;1.20;;
43152;SDS011;28756;49.064;9.290;2022-07-10T06:54:20;1.42;;;1.10;;
43152;SDS011;28756;49.064;9.290;2022-07-10T06:56:46;2.55;;;0.90;;
43152;SDS011;28756;49.064;9.290;2022-07-10T06:59:12;2.17;;;1.10;;
43152;SDS011;28756;49.064;9.290;2022-07-10T07:01:37;3.00;;;1.10;;
43152;SDS011;28756;49.064;9.290;2022-07-10T07:04:03;2.55;;;1.42;;
43152;SDS011;28756;49.064;9.290;2022-07-10T07:06:29;3.22;;;1.00;;
43152;SDS011;28756;49.064;9.290;2022-07-10T07:08:55;3.03;;;1.00;;
43152;SDS011;28756;49.064;9.290;2022-07-10T07:11:41;1.77;;;1.02;;
43152;SDS011;28756;49.064;9.290;2022-07-10T07:14:18;2.90;;;1.00;;
43152;SDS011;28756;49.064;9.290;2022-07-10T07:17:11;2.20;;;0.85;;
43152;SDS011;28756;49.064;9.290;2022-07-10T07:19:55;2.35;;;0.90;;
43152;SDS011;28756;49.064;9.290;2022-07-10T07:22:49;2.05;;;0.80;;
43152;SDS011;28756;49.064;9.290;2022-07-10T07:25:40;2.33;;;0.90;;
43152;SDS011;28756;49.064;9.290;2022-07-10T07:28:19;2.28;;;0.80;;
43152;SDS011;28756;49.064;9.290;2022-07-10T07:30:48;1.85;;;0.82;;
43152;SDS011;28756;49.064;9.290;2022-07-10T07:33:16;3.17;;;0.95;;
43152;SDS011;28756;49.064;9.290;2022-07-10T07:36:13;1.27;;;0.60;;
43152;SDS011;28756;49.064;9.290;2022-07-10T07:38:44;2.05;;;0.90;;
43152;SDS011;28756;49.064;9.290;2022-07-10T07:41:23;2.08;;;0.88;;
43152;SDS011;28756;49.064;9.290;2022-07-10T07:43:53;1.52;;;0.68;;
43152;SDS011;28756;49.064;9.290;2022-07-10T07:46:30;2.33;;;0.80;;
43152;SDS011;28756;49.064;9.290;2022-07-10T07:49:06;1.38;;;0.77;;
43152;SDS011;28756;49.064;9.290;2022-07-10T07:52:14;1.35;;;0.90;;
43152;SDS011;28756;49.064;9.290;2022-07-10T07:54:47;4.70;;;1.00;;
43152;SDS011;28756;49.064;9.290;2022-07-10T07:57:47;2.65;;;0.80;;
43152;SDS011;28756;49.064;9.290;2022-07-10T08:00:48;1.15;;;0.77;;
43152;SDS011;28756;49.064;9.290;2022-07-10T08:03:27;2.00;;;0.82;;
43152;SDS011;28756;49.064;9.290;2022-07-10T08:05:57;1.52;;;0.60;;
43152;SDS011;28756;49.064;9.290;2022-07-10T08:08:47;1.10;;;0.50;;
43152;SDS011;28756;49.064;9.290;2022-07-10T08:11:55;1.42;;;0.80;;
43152;SDS011;28756;49.064;9.290;2022-07-10T08:14:33;2.38;;;0.88;;
43152;SDS011;28756;49.064;9.290;2022-07-10T08:17:26;2.10;;;0.90;;
43152;SDS011;28756;49.064;9.290;2022-07-10T08:20:27;1.95;;;0.85;;
43152;SDS011;28756;49.064;9.290;2022-07-10T08:23:00;3.17;;;0.82;;
43152;SDS011;28756;49.064;9.290;2022-07-10T08:25:29;1.75;;;0.80;;
43152;SDS011;28756;49.064;9.290;2022-07-10T08:31:12;2.00;;;0.80;;
43152;SDS011;28756;49.064;9.290;2022-07-10T08:33:49;3.45;;;1.10;;
43152;SDS011;28756;49.064;9.290;2022-07-10T08:36:24;1.52;;;0.80;;
43152;SDS011;28756;49.064;9.290;2022-07-10T08:38:53;1.55;;;0.82;;
43152;SDS011;28756;49.064;9.290;2022-07-10T08:41:31;1.55;;;0.90;;
43152;SDS011;28756;49.064;9.290;2022-07-10T08:44:22;2.00;;;0.60;;
43152;SDS011;28756;49.064;9.290;2022-07-10T08:47:10;2.35;;;0.90;;
43152;SDS011;28756;49.064;9.290;2022-07-10T08:49:56;1.50;;;0.82;;
43152;SDS011;28756;49.064;9.290;2022-07-10T08:55:24;1.45;;;0.70;;
43152;SDS011;28756;49.064;9.290;2022-07-10T08:58:27;0.98;;;0.50;;
43152;SDS011;28756;49.064;9.290;2022-07-10T09:01:24;5.50;;;0.70;;
43152;SDS011;28756;49.064;9.290;2022-07-10T09:04:02;2.45;;;0.50;;
43152;SDS011;28756;49.064;9.290;2022-07-10T09:06:58;1.05;;;0.50;;
43152;SDS011;28756;49.064;9.290;2022-07-10T09:10:07;2.58;;;0.63;;
43152;SDS011;28756;49.064;9.290;2022-07-10T09:12:54;2.28;;;0.80;;
43152;SDS011;28756;49.064;9.290;2022-07-10T09:15:38;0.88;;;0.50;;
43152;SDS011;28756;49.064;9.290;2022-07-10T09:18:58;1.52;;;0.60;;
43152;SDS011;28756;49.064;9.290;2022-07-10T09:21:48;1.83;;;0.60;;
43152;SDS011;28756;49.064;9.290;2022-07-10T09:24:41;1.77;;;0.70;;
43152;SDS011;28756;49.064;9.290;2022-07-10T09:27:34;1.27;;;0.50;;
43152;SDS011;28756;49.064;9.290;2022-07-10T09:36:34;2.17;;;0.60;;
43152;SDS011;28756;49.064;9.290;2022-07-10T09:39:06;2.00;;;0.88;;
43152;SDS011;28756;49.064;9.290;2022-07-10T09:41:50;2.58;;;1.02;;
43152;SDS011;28756;49.064;9.290;2022-07-10T09:44:38;1.45;;;0.60;;
43152;SDS011;28756;49.064;9.290;2022-07-10T09:47:21;2.00;;;0.70;;
43152;SDS011;28756;49.064;9.290;2022-07-10T09:50:03;2.90;;;0.50;;
43152;SDS011;28756;49.064;9.290;2022-07-10T09:52:50;1.55;;;0.70;;
43152;SDS011;28756;49.064;9.290;2022-07-10T09:55:44;2.42;;;0.82;;
43152;SDS011;28756;49.064;9.290;2022-07-10T09:58:20;2.10;;;0.80;;
43152;SDS011;28756;49.064;9.290;2022-07-10T10:01:00;1.98;;;0.70;;
43152;SDS011;28756;49.064;9.290;2022-07-10T10:03:43;1.55;;;0.57;;
43152;SDS011;28756;49.064;9.290;2022-07-10T10:06:11;1.27;;;0.60;;
43152;SDS011;28756;49.064;9.290;2022-07-10T10:08:56;2.58;;;0.73;;
43152;SDS011;28756;49.064;9.290;2022-07-10T10:11:30;1.73;;;0.65;;
43152;SDS011;28756;49.064;9.290;2022-07-10T10:14:00;1.10;;;0.60;;
43152;SDS011;28756;49.064;9.290;2022-07-10T10:16:27;1.38;;;0.70;;
43152;SDS011;28756;49.064;9.290;2022-07-10T10:18:55;2.05;;;0.55;;
43152;SDS011;28756;49.064;9.290;2022-07-10T10:21:39;1.63;;;0.80;;
43152;SDS011;28756;49.064;9.290;2022-07-10T10:24:05;1.52;;;0.60;;
43152;SDS011;28756;49.064;9.290;2022-07-10T10:26:31;1.10;;;0.60;;
43152;SDS011;28756;49.064;9.290;2022-07-10T10:28:59;2.53;;;0.90;;
43152;SDS011;28756;49.064;9.290;2022-07-10T10:31:28;3.72;;;0.70;;
43152;SDS011;28756;49.064;9.290;2022-07-10T10:33:56;1.33;;;0.70;;
43152;SDS011;28756;49.064;9.290;2022-07-10T10:39:19;3.03;;;0.70;;
43152;SDS011;28756;49.064;9.290;2022-07-10T10:41:49;1.00;;;0.50;;
43152;SDS011;28756;49.064;9.290;2022-07-10T10:44:20;3.13;;;0.68;;
43152;SDS011;28756;49.064;9.290;2022-07-10T10:49:23;1.40;;;0.65;;
43152;SDS011;28756;49.064;9.290;2022-07-10T10:52:00;2.47;;;0.98;;
43152;SDS011;28756;49.064;9.290;2022-07-10T10:57:21;1.55;;;0.70;;
43152;SDS011;28756;49.064;9.290;2022-07-10T11:00:29;1.00;;;0.60;;
43152;SDS011;28756;49.064;9.290;2022-07-10T11:03:12;0.95;;;0.50;;
43152;SDS011;28756;49.064;9.290;2022-07-10T11:05:40;1.35;;;0.70;;
43152;SDS011;28756;49.064;9.290;2022-07-10T11:08:08;1.27;;;0.50;;
43152;SDS011;28756;49.064;9.290;2022-07-10T11:10:36;0.70;;;0.60;;
43152;SDS011;28756;49.064;9.290;2022-07-10T11:15:43;1.25;;;0.60;;
43152;SDS011;28756;49.064;9.290;2022-07-10T11:18:15;1.50;;;0.70;;
43152;SDS011;28756;49.064;9.290;2022-07-10T11:20:44;1.77;;;0.68;;
43152;SDS011;28756;49.064;9.290;2022-07-10T11:26:26;1.48;;;0.68;;
43152;SDS011;28756;49.064;9.290;2022-07-10T11:29:26;1.58;;;0.65;;
43152;SDS011;28756;49.064;9.290;2022-07-10T11:32:11;4.45;;;0.90;;
43152;SDS011;28756;49.064;9.290;2022-07-10T11:38:04;2.58;;;0.60;;
43152;SDS011;28756;49.064;9.290;2022-07-10T11:40:39;1.83;;;0.60;;
43152;SDS011;28756;49.064;9.290;2022-07-10T11:43:19;1.63;;;0.60;;
43152;SDS011;28756;49.064;9.290;2022-07-10T11:45:51;2.10;;;0.85;;
43152;SDS011;28756;49.064;9.290;2022-07-10T11:48:24;2.00;;;0.60;;
43152;SDS011;28756;49.064;9.290;2022-07-10T11:53:52;1.77;;;0.40;;
43152;SDS011;28756;49.064;9.290;2022-07-10T12:10:46;1.55;;;0.60;;
43152;SDS011;28756;49.064;9.290;2022-07-10T12:13:33;1.40;;;0.50;;
43152;SDS011;28756;49.064;9.290;2022-07-10T12:19:17;2.88;;;0.70;;
43152;SDS011;28756;49.064;9.290;2022-07-10T12:21:52;1.02;;;0.38;;
43152;SDS011;28756;49.064;9.290;2022-07-10T12:27:38;0.93;;;0.40;;
43152;SDS011;28756;49.064;9.290;2022-07-10T12:30:19;1.55;;;0.45;;
43152;SDS011;28756;49.064;9.290;2022-07-10T12:43:12;1.20;;;0.40;;
43152;SDS011;28756;49.064;9.290;2022-07-10T12:45:38;1.95;;;0.63;;
43152;SDS011;28756;49.064;9.290;2022-07-10T12:55:45;0.35;;;0.30;;
43152;SDS011;28756;49.064;9.290;2022-07-10T12:58:11;1.75;;;0.40;;
43152;SDS011;28756;49.064;9.290;2022-07-10T13:00:43;1.30;;;0.50;;
43152;SDS011;28756;49.064;9.290;2022-07-10T13:03:17;1.55;;;0.40;;
43152;SDS011;28756;49.064;9.290;2022-07-10T13:05:48;1.48;;;0.47;;
43152;SDS011;28756;49.064;9.290;2022-07-10T13:08:17;2.08;;;0.60;;
43152;SDS011;28756;49.064;9.290;2022-07-10T13:10:58;1.80;;;0.55;;
43152;SDS011;28756;49.064;9.290;2022-07-10T13:22:23;1.08;;;0.52;;
43152;SDS011;28756;49.064;9.290;2022-07-10T13:28:46;1.02;;;0.70;;
43152;SDS011;28756;49.064;9.290;2022-07-10T13:31:22;2.35;;;0.60;;
43152;SDS011;28756;49.064;9.290;2022-07-10T13:33:56;1.95;;;0.70;;
43152;SDS011;28756;49.064;9.290;2022-07-10T13:36:22;1.75;;;0.50;;
43152;SDS011;28756;49.064;9.290;2022-07-10T13:38:48;1.30;;;0.50;;
43152;SDS011;28756;49.064;9.290;2022-07-10T13:41:18;1.17;;;0.50;;
43152;SDS011;28756;49.064;9.290;2022-07-10T13:43:54;1.75;;;0.40;;
43152;SDS011;28756;49.064;9.290;2022-07-10T13:46:43;1.30;;;0.40;;
43152;SDS011;28756;49.064;9.290;2022-07-10T13:49:13;1.50;;;0.40;;
43152;SDS011;28756;49.064;9.290;2022-07-10T13:51:50;3.95;;;0.50;;
43152;SDS011;28756;49.064;9.290;2022-07-10T13:54:21;1.90;;;0.60;;
43152;SDS011;28756;49.064;9.290;2022-07-10T13:56:50;1.13;;;0.40;;
43152;SDS011;28756;49.064;9.290;2022-07-10T13:59:22;0.85;;;0.40;;
43152;SDS011;28756;49.064;9.290;2022-07-10T14:01:47;2.15;;;0.50;;
43152;SDS011;28756;49.064;9.290;2022-07-10T14:04:16;0.65;;;0.40;;
43152;SDS011;28756;49.064;9.290;2022-07-10T14:06:42;2.00;;;0.68;;
43152;SDS011;28756;49.064;9.290;2022-07-10T14:09:08;0.47;;;0.28;;
43152;SDS011;28756;49.064;9.290;2022-07-10T14:11:33;1.38;;;0.43;;
43152;SDS011;28756;49.064;9.290;2022-07-10T14:14:00;2.28;;;0.50;;
43152;SDS011;28756;49.064;9.290;2022-07-10T14:16:26;1.55;;;0.50;;
43152;SDS011;28756;49.064;9.290;2022-07-10T14:18:52;0.57;;;0.30;;
43152;SDS011;28756;49.064;9.290;2022-07-10T14:21:19;0.75;;;0.40;;
43152;SDS011;28756;49.064;9.290;2022-07-10T14:23:45;1.83;;;0.45;;
43152;SDS011;28756;49.064;9.290;2022-07-10T14:26:11;1.45;;;0.50;;
43152;SDS011;28756;49.064;9.290;2022-07-10T14:28:37;1.20;;;0.40;;
43152;SDS011;28756;49.064;9.290;2022-07-10T14:31:04;1.70;;;0.70;;
43152;SDS011;28756;49.064;9.290;2022-07-10T14:33:32;1.73;;;0.60;;
43152;SDS011;28756;49.064;9.290;2022-07-10T14:35:58;2.08;;;0.52;;
43152;SDS011;28756;49.064;9.290;2022-07-10T14:38:25;0.80;;;0.32;;
43152;SDS011;28756;49.064;9.290;2022-07-10T14:40:51;0.98;;;0.30;;
43152;SDS011;28756;49.064;9.290;2022-07-10T14:43:18;1.35;;;0.50;;
43152;SDS011;28756;49.064;9.290;2022-07-10T14:45:45;1.38;;;0.45;;
43152;SDS011;28756;49.064;9.290;2022-07-10T14:48:11;1.85;;;0.45;;
43152;SDS011;28756;49.064;9.290;2022-07-10T14:50:37;0.50;;;0.32;;
43152;SDS011;28756;49.064;9.290;2022-07-10T14:53:04;2.28;;;0.60;;
43152;SDS011;28756;49.064;9.290;2022-07-10T14:55:31;0.57;;;0.30;;
43152;SDS011;28756;49.064;9.290;2022-07-10T14:57:57;1.77;;;0.70;;
43152;SDS011;28756;49.064;9.290;2022-07-10T15:00:23;0.88;;;0.47;;
43152;SDS011;28756;49.064;9.290;2022-07-10T15:02:48;2.13;;;0.50;;
43152;SDS011;28756;49.064;9.290;2022-07-10T15:05:14;1.75;;;0.60;;
43152;SDS011;28756;49.064;9.290;2022-07-10T15:07:40;2.05;;;0.47;;
43152;SDS011;28756;49.064;9.290;2022-07-10T15:10:06;0.45;;;0.30;;
43152;SDS011;28756;49.064;9.290;2022-07-10T15:12:33;1.33;;;0.75;;
43152;SDS011;28756;49.064;9.290;2022-07-10T15:15:04;0.90;;;0.40;;
43152;SDS011;28756;49.064;9.290;2022-07-10T15:17:33;1.85;;;0.73;;
43152;SDS011;28756;49.064;9.290;2022-07-10T15:20:00;0.75;;;0.38;;
43152;SDS011;28756;49.064;9.290;2022-07-10T15:22:26;0.40;;;0.40;;
43152;SDS011;28756;49.064;9.290;2022-07-10T15:24:52;1.00;;;0.50;;
43152;SDS011;28756;49.064;9.290;2022-07-10T15:27:17;3.20;;;0.47;;
43152;SDS011;28756;49.064;9.290;2022-07-10T15:29:43;3.35;;;0.43;;
43152;SDS011;28756;49.064;9.290;2022-07-10T15:32:12;2.72;;;0.55;;
43152;SDS011;28756;49.064;9.290;2022-07-10T15:34:48;0.65;;;0.40;;
43152;SDS011;28756;49.064;9.290;2022-07-10T15:37:15;4.15;;;0.68;;
43152;SDS011;28756;49.064;9.290;2022-07-10T15:39:48;1.55;;;0.50;;
43152;SDS011;28756;49.064;9.290;2022-07-10T15:42:27;2.05;;;0.50;;
43152;SDS011;28756;49.064;9.290;2022-07-10T15:45:00;2.75;;;0.98;;
43152;SDS011;28756;49.064;9.290;2022-07-10T15:47:30;1.90;;;0.68;;
43152;SDS011;28756;49.064;9.290;2022-07-10T15:50:03;1.05;;;0.57;;
43152;SDS011;28756;49.064;9.290;2022-07-10T15:52:35;1.08;;;0.50;;
43152;SDS011;28756;49.064;9.290;2022-07-10T15:55:03;1.75;;;0.77;;
43152;SDS011;28756;49.064;9.290;2022-07-10T15:57:29;1.10;;;0.50;;
43152;SDS011;28756;49.064;9.290;2022-07-10T15:59:59;0.75;;;0.40;;
43152;SDS011;28756;49.064;9.290;2022-07-10T16:02:25;1.45;;;0.40;;
43152;SDS011;28756;49.064;9.290;2022-07-10T16:04:50;1.73;;;0.50;;
43152;SDS011;28756;49.064;9.290;2022-07-10T16:07:16;1.77;;;0.47;;
43152;SDS011;28756;49.064;9.290;2022-07-10T16:09:42;1.42;;;0.40;;
43152;SDS011;28756;49.064;9.290;2022-07-10T16:12:08;1.05;;;0.47;;
43152;SDS011;28756;49.064;9.290;2022-07-10T16:14:33;2.08;;;0.93;;
43152;SDS011;28756;49.064;9.290;2022-07-10T16:16:59;2.40;;;0.60;;
43152;SDS011;28756;49.064;9.290;2022-07-10T16:19:26;0.75;;;0.43;;
43152;SDS011;28756;49.064;9.290;2022-07-10T16:21:52;1.02;;;0.60;;
43152;SDS011;28756;49.064;9.290;2022-07-10T16:24:18;0.93;;;0.50;;
43152;SDS011;28756;49.064;9.290;2022-07-10T16:26:44;0.77;;;0.50;;
43152;SDS011;28756;49.064;9.290;2022-07-10T16:29:10;1.15;;;0.40;;
43152;SDS011;28756;49.064;9.290;2022-07-10T16:31:35;2.90;;;1.25;;
43152;SDS011;28756;49.064;9.290;2022-07-10T16:34:05;1.98;;;0.65;;